createdAt,value
2022-09-03T00:02:22.397Z,0.68
2022-09-03T00:05:08.004Z,0.70
2022-09-03T00:07:40.862Z,0.70
2022-09-03T00:10:12.485Z,0.70
2022-09-03T00:12:44.628Z,0.90
2022-09-03T00:15:18.861Z,0.70
2022-09-03T00:17:55.389Z,1.02
2022-09-03T00:20:33.225Z,0.68
2022-09-03T00:23:08.692Z,0.80
2022-09-03T00:25:40.713Z,0.90
2022-09-03T00:28:15.693Z,0.90
2022-09-03T00:30:45.343Z,1.05
2022-09-03T00:33:22.437Z,0.65
2022-09-03T00:36:03.863Z,0.82
2022-09-03T00:38:30.857Z,0.95
2022-09-03T00:41:23.496Z,0.82
2022-09-03T00:44:01.094Z,0.65
2022-09-03T00:46:53.013Z,0.40
2022-09-03T00:49:32.704Z,0.80
2022-09-03T00:52:23.454Z,0.73
2022-09-03T00:55:08.903Z,0.80
2022-09-03T00:57:54.006Z,1.05
2022-09-03T01:00:21.463Z,1.00
2022-09-03T01:03:09.277Z,0.77
2022-09-03T01:08:20.901Z,0.70
2022-09-03T01:10:56.487Z,1.00
2022-09-03T01:13:36.884Z,1.10
2022-09-03T01:16:31.368Z,0.93
2022-09-03T01:19:35.628Z,1.15
2022-09-03T01:22:18.741Z,1.45
2022-09-03T01:25:15.708Z,0.80
2022-09-03T01:28:16.365Z,1.00
2022-09-03T01:30:45.877Z,1.27
2022-09-03T01:33:37.161Z,1.08
2022-09-03T01:36:32.623Z,1.00
2022-09-03T01:39:06.228Z,1.17
2022-09-03T01:41:55.425Z,1.20
2022-09-03T01:44:49.910Z,0.88
2022-09-03T01:47:36.987Z,1.00
2022-09-03T01:50:14.924Z,1.10
2022-09-03T01:52:59.338Z,2.55
2022-09-03T01:55:33.561Z,0.90
2022-09-03T01:58:38.127Z,0.85
2022-09-03T02:01:18.261Z,0.80
2022-09-03T02:03:45.793Z,1.08
2022-09-03T02:06:12.599Z,1.00
2022-09-03T02:08:39.174Z,0.95
2022-09-03T02:11:09.801Z,0.75
2022-09-03T02:13:40.892Z,0.98
2022-09-03T02:16:20.448Z,1.60
2022-09-03T02:18:51.385Z,1.23
2022-09-03T02:21:21.165Z,1.05
2022-09-03T02:23:48.484Z,0.80
2022-09-03T02:26:18.402Z,1.40
2022-09-03T02:28:45.505Z,1.50
2022-09-03T02:31:12.315Z,0.65
2022-09-03T02:33:41.328Z,1.00
2022-09-03T02:36:11.533Z,1.00
2022-09-03T02:38:38.175Z,1.17
2022-09-03T02:41:04.890Z,1.10
2022-09-03T02:43:58.855Z,1.00
2022-09-03T02:46:43.461Z,0.90
2022-09-03T02:49:10.025Z,0.85
2022-09-03T02:51:41.993Z,0.80
2022-09-03T02:54:10.453Z,0.70
2022-09-03T02:56:38.189Z,0.88
2022-09-03T02:59:06.682Z,0.70
2022-09-03T03:01:33.692Z,0.77
2022-09-03T03:04:00.367Z,0.80
2022-09-03T03:06:26.996Z,0.90
2022-09-03T03:08:53.521Z,1.15
2022-09-03T03:11:20.165Z,1.33
2022-09-03T03:13:47.057Z,1.02
2022-09-03T03:16:15.518Z,1.17
2022-09-03T03:18:42.235Z,1.20
2022-09-03T03:21:11.524Z,0.80
2022-09-03T03:23:38.762Z,1.08
2022-09-03T03:26:10.560Z,1.60
2022-09-03T03:28:37.549Z,0.95
2022-09-03T03:31:09.311Z,0.95
2022-09-03T03:33:36.148Z,0.93
2022-09-03T03:36:10.994Z,0.90
2022-09-03T03:38:38.554Z,1.10
2022-09-03T03:41:13.770Z,1.02
2022-09-03T03:43:40.428Z,1.17
2022-09-03T03:46:07.274Z,0.90
2022-09-03T03:48:34.320Z,1.00
2022-09-03T03:51:06.729Z,1.10
2022-09-03T03:53:38.051Z,0.95
2022-09-03T03:56:07.619Z,0.90
2022-09-03T03:58:34.512Z,1.08
2022-09-03T04:01:17.736Z,1.40
2022-09-03T04:03:45.093Z,0.90
2022-09-03T04:06:13.861Z,1.00
2022-09-03T04:08:42.822Z,0.98
2022-09-03T04:11:14.023Z,1.20
2022-09-03T04:13:42.369Z,1.40
2022-09-03T04:16:38.586Z,1.23
2022-09-03T04:19:05.259Z,0.85
2022-09-03T04:21:31.843Z,1.10
2022-09-03T04:23:58.885Z,0.93
2022-09-03T04:26:29.137Z,0.85
2022-09-03T04:28:55.684Z,1.00
2022-09-03T04:31:22.368Z,1.20
2022-09-03T04:33:49.505Z,1.20
2022-09-03T04:36:21.623Z,1.10
2022-09-03T04:38:51.767Z,1.30
2022-09-03T04:41:21.178Z,1.13
2022-09-03T04:43:48.612Z,1.20
2022-09-03T04:46:19.365Z,1.08
2022-09-03T04:48:49.377Z,1.88
2022-09-03T04:51:19.296Z,0.95
2022-09-03T04:53:48.248Z,1.50
2022-09-03T04:56:20.659Z,1.05
2022-09-03T04:58:49.205Z,1.55
2022-09-03T05:01:22.449Z,1.20
2022-09-03T05:03:49.555Z,1.23
2022-09-03T05:06:16.114Z,1.25
2022-09-03T05:08:43.592Z,1.55
2022-09-03T05:11:10.280Z,1.30
2022-09-03T05:13:36.979Z,1.10
2022-09-03T05:16:09.979Z,1.23
2022-09-03T05:18:37.094Z,1.20
2022-09-03T05:21:06.708Z,1.00
2022-09-03T05:23:37.835Z,0.90
2022-09-03T05:26:06.953Z,1.05
2022-09-03T05:28:39.731Z,1.45
2022-09-03T05:31:08.732Z,1.98
2022-09-03T05:33:40.669Z,1.33
2022-09-03T05:36:09.974Z,1.25
2022-09-03T05:38:37.131Z,1.15
2022-09-03T05:41:08.831Z,1.30
2022-09-03T05:43:36.226Z,1.23
2022-09-03T05:46:08.746Z,1.27
2022-09-03T05:48:37.100Z,1.45
2022-09-03T05:51:07.879Z,1.63
2022-09-03T05:53:36.555Z,2.00
2022-09-03T05:56:10.500Z,1.58
2022-09-03T05:58:40.066Z,1.75
2022-09-03T06:01:18.384Z,1.83
2022-09-03T06:03:47.510Z,1.67
2022-09-03T06:06:15.247Z,1.65
2022-09-03T06:08:42.705Z,1.92
2022-09-03T06:11:09.292Z,1.80
2022-09-03T06:13:36.836Z,1.40
2022-09-03T06:16:05.741Z,1.53
2022-09-03T06:18:32.755Z,1.80
2022-09-03T06:21:01.686Z,2.05
2022-09-03T06:23:30.401Z,1.52
2022-09-03T06:26:07.991Z,1.40
2022-09-03T06:28:36.283Z,1.83
2022-09-03T06:31:05.023Z,1.40
2022-09-03T06:33:33.651Z,1.30
2022-09-03T06:36:03.787Z,1.40
2022-09-03T06:38:34.468Z,1.80
2022-09-03T06:41:02.600Z,1.45
2022-09-03T06:43:31.056Z,1.83
2022-09-03T06:45:59.890Z,1.63
2022-09-03T06:48:27.895Z,1.55
2022-09-03T06:50:59.857Z,1.60
2022-09-03T06:53:34.496Z,1.65
2022-09-03T06:56:03.396Z,1.48
2022-09-03T06:58:32.221Z,1.60
2022-09-03T07:01:04.470Z,1.30
2022-09-03T07:03:31.045Z,1.60
2022-09-03T07:06:04.233Z,1.50
2022-09-03T07:08:31.918Z,1.40
2022-09-03T07:11:02.787Z,1.65
2022-09-03T07:13:29.553Z,1.60
2022-09-03T07:16:20.672Z,1.40
2022-09-03T07:18:47.792Z,1.60
2022-09-03T07:21:17.011Z,2.10
2022-09-03T07:23:44.430Z,1.88
2022-09-03T07:26:13.835Z,1.33
2022-09-03T07:28:41.985Z,1.50
2022-09-03T07:31:26.817Z,1.80
2022-09-03T07:33:54.877Z,1.80
2022-09-03T07:38:48.662Z,1.23
2022-09-03T07:41:21.796Z,1.92
2022-09-03T07:43:55.300Z,1.20
2022-09-03T07:46:23.918Z,1.50
2022-09-03T07:48:52.046Z,1.33
2022-09-03T07:56:15.055Z,1.33
2022-09-03T07:58:42.361Z,1.30
2022-09-03T08:01:14.172Z,1.13
2022-09-03T08:03:46.663Z,1.50
2022-09-03T08:06:14.553Z,1.65
2022-09-03T08:08:41.614Z,1.45
2022-09-03T08:11:11.252Z,1.38
2022-09-03T08:13:39.637Z,1.45
2022-09-03T08:16:07.667Z,1.30
2022-09-03T08:21:01.551Z,1.17
2022-09-03T08:23:28.056Z,1.42
2022-09-03T08:26:01.167Z,1.55
2022-09-03T08:28:28.349Z,1.50
2022-09-03T08:30:55.011Z,1.77
2022-09-03T08:33:22.319Z,1.73
2022-09-03T08:35:54.500Z,1.48
2022-09-03T08:38:21.119Z,1.30
2022-09-03T08:40:47.782Z,1.52
2022-09-03T08:43:17.272Z,1.30
2022-09-03T08:45:43.915Z,1.20
2022-09-03T08:48:16.218Z,1.38
2022-09-03T08:50:48.483Z,1.50
2022-09-03T08:53:30.030Z,1.10
2022-09-03T08:56:03.366Z,1.33
2022-09-03T08:58:33.301Z,1.17
2022-09-03T09:01:21.548Z,1.30
2022-09-03T09:04:23.008Z,0.80
2022-09-03T09:07:15.024Z,1.13
2022-09-03T09:10:00.915Z,1.50
2022-09-03T09:12:59.912Z,1.27
2022-09-03T09:15:39.990Z,1.40
2022-09-03T09:18:18.727Z,1.23
2022-09-03T09:20:50.962Z,1.50
2022-09-03T09:23:27.152Z,1.48
2022-09-03T09:25:57.271Z,1.83
2022-09-03T09:28:29.159Z,1.30
2022-09-03T09:30:57.267Z,1.30
2022-09-03T09:33:24.517Z,1.45
2022-09-03T09:35:51.050Z,1.20
2022-09-03T09:38:31.552Z,1.13
2022-09-03T09:41:09.148Z,1.23
2022-09-03T09:43:35.857Z,1.23
2022-09-03T09:46:09.822Z,1.80
2022-09-03T09:48:50.520Z,1.20
2022-09-03T09:51:23.602Z,1.13
2022-09-03T09:54:18.169Z,1.38
2022-09-03T09:56:44.924Z,1.33
2022-09-03T09:59:13.572Z,1.77
2022-09-03T10:01:42.411Z,1.15
2022-09-03T10:04:12.875Z,1.48
2022-09-03T10:06:40.447Z,1.00
2022-09-03T10:09:13.500Z,1.20
2022-09-03T10:11:44.543Z,1.27
2022-09-03T10:14:23.026Z,1.13
2022-09-03T10:16:58.449Z,1.42
2022-09-03T10:19:43.775Z,1.05
2022-09-03T10:22:17.154Z,1.38
2022-09-03T10:25:02.572Z,0.90
2022-09-03T10:27:29.223Z,1.13
2022-09-03T10:29:58.727Z,1.08
2022-09-03T10:32:25.215Z,1.17
2022-09-03T10:35:09.431Z,0.77
2022-09-03T10:37:47.477Z,0.80
2022-09-03T10:40:32.037Z,1.02
2022-09-03T10:43:16.824Z,0.95
2022-09-03T10:45:58.733Z,1.00
2022-09-03T10:48:49.725Z,0.85
2022-09-03T10:51:34.580Z,0.98
2022-09-03T10:54:21.798Z,1.38
2022-09-03T10:57:14.362Z,1.30
2022-09-03T10:59:56.765Z,1.20
2022-09-03T11:02:55.329Z,1.10
2022-09-03T11:05:32.933Z,0.93
2022-09-03T11:08:11.898Z,0.80
2022-09-03T11:10:45.969Z,1.10
2022-09-03T11:13:24.811Z,1.30
2022-09-03T11:15:55.782Z,1.10
2022-09-03T11:18:29.229Z,1.48
2022-09-03T11:21:00.372Z,0.82
2022-09-03T11:23:29.772Z,1.00
2022-09-03T11:26:01.542Z,1.10
2022-09-03T11:28:46.880Z,1.02
2022-09-03T11:31:22.518Z,0.70
2022-09-03T11:34:14.001Z,1.30
2022-09-03T11:36:49.753Z,1.02
2022-09-03T11:39:31.712Z,1.08
2022-09-03T11:42:03.883Z,1.50
2022-09-03T11:44:51.060Z,0.90
2022-09-03T11:47:24.368Z,0.93
2022-09-03T11:49:53.549Z,1.02
2022-09-03T11:52:31.367Z,0.90
2022-09-03T11:57:30.414Z,0.85
2022-09-03T12:00:14.714Z,0.90
2022-09-03T12:02:47.684Z,1.02
2022-09-03T12:05:21.980Z,1.00
2022-09-03T12:08:12.679Z,0.90
2022-09-03T12:11:05.908Z,0.90
2022-09-03T12:13:47.987Z,0.63
2022-09-03T12:16:40.184Z,0.98
2022-09-03T12:19:22.219Z,0.90
2022-09-03T12:21:49.624Z,1.20
2022-09-03T12:24:16.822Z,1.00
2022-09-03T12:26:43.937Z,0.90
2022-09-03T12:29:23.801Z,0.90
2022-09-03T12:31:54.735Z,0.80
2022-09-03T12:34:21.313Z,1.08
2022-09-03T12:36:50.859Z,1.33
2022-09-03T12:39:17.576Z,0.90
2022-09-03T12:41:56.390Z,1.20
2022-09-03T12:44:32.546Z,0.90
2022-09-03T12:49:53.243Z,0.80
2022-09-03T12:52:28.297Z,1.10
2022-09-03T12:55:03.242Z,0.95
2022-09-03T12:57:35.602Z,1.10
2022-09-03T13:00:08.266Z,1.00
2022-09-03T13:02:46.313Z,1.05
2022-09-03T13:05:18.782Z,1.45
2022-09-03T13:07:53.210Z,0.88
2022-09-03T13:10:36.339Z,0.80
2022-09-03T13:13:17.737Z,0.90
2022-09-03T13:16:15.847Z,0.82
2022-09-03T13:19:14.754Z,0.73
2022-09-03T13:22:09.415Z,0.73
2022-09-03T13:24:54.785Z,0.88
2022-09-03T13:27:42.009Z,1.00
2022-09-03T13:30:23.106Z,1.00
2022-09-03T13:33:20.464Z,0.95
2022-09-03T13:38:24.064Z,0.93
2022-09-03T13:41:01.125Z,0.88
2022-09-03T13:44:02.767Z,0.90
2022-09-03T13:46:38.951Z,1.10
2022-09-03T13:49:18.028Z,1.00
2022-09-03T13:51:54.484Z,1.13
2022-09-03T13:54:47.563Z,0.98
2022-09-03T13:57:35.567Z,0.80
2022-09-03T14:00:04.276Z,1.40
2022-09-03T14:02:55.772Z,1.10
2022-09-03T14:05:57.610Z,1.35
2022-09-03T14:08:42.373Z,1.40
2022-09-03T14:11:42.825Z,1.35
2022-09-03T14:14:37.472Z,1.38
2022-09-03T14:17:15.097Z,1.15
2022-09-03T14:19:56.173Z,1.10
2022-09-03T14:22:45.874Z,1.55
2022-09-03T14:25:17.171Z,1.52
2022-09-03T14:27:44.061Z,1.38
2022-09-03T14:30:16.831Z,1.33
2022-09-03T14:32:55.668Z,1.00
2022-09-03T14:35:33.094Z,1.17
2022-09-03T14:38:09.619Z,1.35
2022-09-03T14:40:43.752Z,1.17
2022-09-03T14:43:31.975Z,1.23
2022-09-03T14:46:17.071Z,1.48
2022-09-03T14:49:08.583Z,1.63
2022-09-03T14:51:54.067Z,2.38
2022-09-03T14:54:58.356Z,2.15
2022-09-03T14:57:36.836Z,1.30
2022-09-03T15:00:12.134Z,1.48
2022-09-03T15:03:04.917Z,0.68
2022-09-03T15:06:04.473Z,1.05
2022-09-03T15:08:48.255Z,1.17
2022-09-03T15:11:33.200Z,0.98
2022-09-03T15:14:15.646Z,1.05
2022-09-03T15:17:17.407Z,1.55
2022-09-03T15:20:21.223Z,1.45
2022-09-03T15:23:11.378Z,0.70
2022-09-03T15:25:55.899Z,0.98
2022-09-03T15:28:25.308Z,1.05
2022-09-03T15:30:58.972Z,0.85
2022-09-03T15:33:39.487Z,1.10
2022-09-03T15:36:44.143Z,1.00
2022-09-03T15:39:18.345Z,1.20
2022-09-03T15:41:52.669Z,0.97
2022-09-03T15:44:20.058Z,1.00
2022-09-03T15:47:14.127Z,1.00
2022-09-03T15:49:53.063Z,1.08
2022-09-03T15:52:28.547Z,1.00
2022-09-03T15:55:12.877Z,1.15
2022-09-03T15:57:54.752Z,0.70
2022-09-03T16:00:22.512Z,0.90
2022-09-03T16:03:09.342Z,1.17
2022-09-03T16:05:57.963Z,0.80
2022-09-03T16:08:52.495Z,0.65
2022-09-03T16:11:39.141Z,0.98
2022-09-03T16:14:31.494Z,0.70
2022-09-03T16:17:26.202Z,0.70
2022-09-03T16:20:19.400Z,0.52
2022-09-03T16:22:58.136Z,0.52
2022-09-03T16:25:31.591Z,0.50
2022-09-03T16:28:11.471Z,0.70
2022-09-03T16:30:40.967Z,0.55
2022-09-03T16:34:04.831Z,0.70
2022-09-03T16:37:05.820Z,0.90
2022-09-03T16:39:35.369Z,0.70
2022-09-03T16:42:07.473Z,1.00
2022-09-03T16:44:51.182Z,0.75
2022-09-03T16:47:41.477Z,1.02
2022-09-03T16:50:38.955Z,0.80
2022-09-03T16:53:16.355Z,0.52
2022-09-03T16:55:51.831Z,0.65
2022-09-03T16:58:34.480Z,0.60
2022-09-03T17:01:39.059Z,0.60
2022-09-03T17:04:31.682Z,0.70
2022-09-03T17:07:28.703Z,0.73
2022-09-03T17:10:21.153Z,0.80
2022-09-03T17:13:15.335Z,0.80
2022-09-03T17:15:55.048Z,0.60
2022-09-03T17:18:33.622Z,0.75
2022-09-03T17:21:22.929Z,0.55
2022-09-03T17:24:04.451Z,0.73
2022-09-03T17:27:04.316Z,1.10
2022-09-03T17:30:05.229Z,0.80
2022-09-03T17:32:57.196Z,1.10
2022-09-03T17:35:37.784Z,0.70
2022-09-03T17:38:32.294Z,0.70
2022-09-03T17:41:15.845Z,0.75
2022-09-03T17:44:10.366Z,0.57
2022-09-03T17:47:19.305Z,0.68
2022-09-03T17:49:50.572Z,0.70
2022-09-03T17:52:32.289Z,1.02
2022-09-03T17:55:35.070Z,0.50
2022-09-03T17:58:29.397Z,0.70
2022-09-03T18:01:14.712Z,0.60
2022-09-03T18:03:49.868Z,0.77
2022-09-03T18:06:27.948Z,1.00
2022-09-03T18:09:06.473Z,0.68
2022-09-03T18:11:49.692Z,0.70
2022-09-03T18:14:39.504Z,0.50
2022-09-03T18:17:17.356Z,0.68
2022-09-03T18:19:55.549Z,0.63
2022-09-03T18:24:58.499Z,0.63
2022-09-03T18:27:40.791Z,0.75
2022-09-03T18:30:10.190Z,0.57
2022-09-03T18:32:36.860Z,0.50
2022-09-03T18:35:03.634Z,1.10
2022-09-03T18:37:30.227Z,0.90
2022-09-03T18:39:56.813Z,0.85
2022-09-03T18:42:31.378Z,0.98
2022-09-03T18:45:23.328Z,0.90
2022-09-03T18:48:05.956Z,0.70
2022-09-03T18:50:49.144Z,0.93
2022-09-03T18:53:46.365Z,0.80
2022-09-03T18:56:13.011Z,0.80
2022-09-03T18:59:01.036Z,0.80
2022-09-03T19:01:45.890Z,0.70
2022-09-03T19:04:29.630Z,1.02
2022-09-03T19:07:02.243Z,0.73
2022-09-03T19:09:40.997Z,0.60
2022-09-03T19:12:22.395Z,0.70
2022-09-03T19:15:14.992Z,0.70
2022-09-03T19:18:00.056Z,0.93
2022-09-03T19:20:31.463Z,1.05
2022-09-03T19:22:58.082Z,0.90
2022-09-03T19:25:27.417Z,0.90
2022-09-03T19:28:21.903Z,0.70
2022-09-03T19:30:54.491Z,0.88
2022-09-03T19:33:26.686Z,0.40
2022-09-03T19:36:15.117Z,0.68
2022-09-03T19:38:50.271Z,0.70
2022-09-03T19:41:55.214Z,0.50
2022-09-03T19:45:00.602Z,0.45
2022-09-03T19:47:55.203Z,1.02
2022-09-03T19:50:31.018Z,0.50
2022-09-03T19:53:03.610Z,0.55
2022-09-03T19:55:35.515Z,0.50
2022-09-03T19:58:02.131Z,0.50
2022-09-03T20:00:33.063Z,0.50
2022-09-03T20:03:01.592Z,0.50
2022-09-03T20:05:28.175Z,0.40
2022-09-03T20:07:56.442Z,0.77
2022-09-03T20:10:24.940Z,0.50
2022-09-03T20:13:19.202Z,0.73
2022-09-03T20:16:17.170Z,0.65
2022-09-03T20:18:59.854Z,0.70
2022-09-03T20:21:38.571Z,0.43
2022-09-03T20:24:10.829Z,0.50
2022-09-03T20:27:00.430Z,0.60
2022-09-03T20:29:45.393Z,0.40
2022-09-03T20:32:36.531Z,0.93
2022-09-03T20:35:54.312Z,1.30
2022-09-03T20:38:59.682Z,0.60
2022-09-03T20:41:49.506Z,0.50
2022-09-03T20:44:49.243Z,0.47
2022-09-03T20:47:30.721Z,0.80
2022-09-03T20:50:18.916Z,0.57
2022-09-03T20:55:42.584Z,0.65
2022-09-03T20:58:26.779Z,0.82
2022-09-03T21:01:06.990Z,0.50
2022-09-03T21:03:48.957Z,0.80
2022-09-03T21:06:18.363Z,0.50
2022-09-03T21:09:15.210Z,0.70
2022-09-03T21:11:47.734Z,0.50
2022-09-03T21:14:41.251Z,0.75
2022-09-03T21:17:21.238Z,0.57
2022-09-03T21:19:54.256Z,0.80
2022-09-03T21:22:48.170Z,0.60
2022-09-03T21:25:30.027Z,0.70
2022-09-03T21:28:08.438Z,0.63
2022-09-03T21:30:39.192Z,0.80
2022-09-03T21:33:12.927Z,0.73
2022-09-03T21:35:53.588Z,0.70
2022-09-03T21:38:28.147Z,0.80
2022-09-03T21:41:02.750Z,0.60
2022-09-03T21:43:44.153Z,0.60
2022-09-03T21:46:19.075Z,0.77
2022-09-03T21:48:57.745Z,0.90
2022-09-03T21:51:33.371Z,0.80
2022-09-03T21:54:02.930Z,0.90
2022-09-03T21:56:44.595Z,0.82
2022-09-03T22:00:01.477Z,0.65
2022-09-03T22:02:30.260Z,0.50
2022-09-03T22:04:57.463Z,1.00
2022-09-03T22:07:42.994Z,0.60
2022-09-03T22:10:22.572Z,0.60
2022-09-03T22:13:17.053Z,0.70
2022-09-03T22:15:47.020Z,0.70
2022-09-03T22:18:21.579Z,0.88
2022-09-03T22:20:48.289Z,0.80
2022-09-03T22:23:21.702Z,0.93
2022-09-03T22:25:58.997Z,0.57
2022-09-03T22:29:04.153Z,0.70
2022-09-03T22:32:07.920Z,0.70
2022-09-03T22:34:43.872Z,0.85
2022-09-03T22:37:38.426Z,0.70
2022-09-03T22:40:28.665Z,1.02
2022-09-03T22:43:32.874Z,0.75
2022-09-03T22:46:02.207Z,0.88
2022-09-03T22:49:05.865Z,0.98
2022-09-03T22:52:03.171Z,0.70
2022-09-03T22:54:57.939Z,0.85
2022-09-03T22:57:28.315Z,0.50
2022-09-03T23:00:02.440Z,0.70
2022-09-03T23:02:31.511Z,0.70
2022-09-03T23:05:09.528Z,0.93
2022-09-03T23:07:43.005Z,0.77
2022-09-03T23:10:14.755Z,0.52
2022-09-03T23:13:09.502Z,0.80
2022-09-03T23:15:39.516Z,0.55
2022-09-03T23:18:21.059Z,0.77
2022-09-03T23:21:00.736Z,0.70
2022-09-03T23:23:34.877Z,0.90
2022-09-03T23:26:14.015Z,0.90
2022-09-03T23:28:46.201Z,0.77
2022-09-03T23:31:20.780Z,0.60
2022-09-03T23:33:47.987Z,0.77
2022-09-03T23:36:53.103Z,0.60
2022-09-03T23:39:31.778Z,1.30
2022-09-03T23:42:10.172Z,1.00
2022-09-03T23:45:08.558Z,0.88
2022-09-03T23:48:26.575Z,0.73
2022-09-03T23:51:13.978Z,0.43
2022-09-03T23:53:46.281Z,0.45
2022-09-03T23:56:54.163Z,0.43
2022-09-03T23:59:37.823Z,0.70
